Latest Coastal Weather Observations for Warrnambool

IDV60701

Issued at 8:22 pm EDT Wednesday 7 December 2022 (issued every 10 minutes, with the page automatically refreshed every 10 minutes)

About coastal observations | Map of coastal stations | Coastal observations for VIC | Marine services | Other Formats
Station Details ID: 090186 Name: WARRNAMBOOL AIRPORT NDB Lat: -38.29 Lon: 142.45 Height: 70.8 m
Data from the previous 72 hours. | See also: Recent months at Warrnambool
Date/Time
EDT
Wind Sea
Height
m
Swell Vis
km
Cloud Weather Temp
°C
Press
MSL
hPa
Rain since
9am
mm
Dir  Spd
kts
Gust
kts
Height
m
Period
s
Dir
07/08:00pm SW 20 27 - - - - 10 Partly cloudy - 11.2 1010.3 2.6
07/07:39pm SW 20 31 - - - - 9 Partly cloudy - 11.9 1010.1 2.6
07/07:30pm SW 20 28 - - - - 9 Partly cloudy - 11.8 1009.9 2.6
07/07:00pm SW 24 32 - - - - 10 Partly cloudy - 12.4 1009.3 2.6
07/06:30pm SW 24 33 - - - - 10 Partly cloudy - 13.5 1008.6 2.6
07/06:10pm SW 22 32 - - - - 10 Partly cloudy - 13.0 1008.2 2.6
07/06:00pm SW 23 31 - - - - 10 Cloudy Recent precip. 13.0 1008.1 2.6
07/05:48pm SW 24 32 - - - - 10 Partly cloudy - 12.8 1008.0 2.6
07/05:30pm SW 16 27 - - - - 3 Partly cloudy - 11.3 1007.7 2.6
07/05:27pm SW 18 28 - - - - 3 Partly cloudy - 11.3 1007.8 2.2
07/05:23pm SW 20 28 - - - - 5 Partly cloudy - 11.4 1007.8 1.8
07/05:07pm SW 21 31 - - - - 10 Partly cloudy - 12.7 1007.4 1.6
07/05:04pm SW 21 31 - - - - 9 Partly cloudy - 12.6 1007.4 1.6
07/05:00pm SW 21 29 - - - - 7 Partly cloudy - 13.3 1007.5 1.6
07/04:56pm SW 22 32 - - - - 4 Partly cloudy - 12.5 1007.5 1.6
07/04:45pm WSW 21 29 - - - - 4 Partly cloudy - 12.1 1007.4 1.4
07/04:36pm WSW 19 27 - - - - 10 Partly cloudy - 13.3 1007.3 0.8
07/04:30pm WSW 23 30 - - - - 10 Partly cloudy - 13.1 1007.2 0.8
07/04:07pm WSW 19 29 - - - - 10 Partly cloudy - 14.2 1006.8 0.8
07/04:03pm W 17 29 - - - - 10 Partly cloudy - 13.9 1006.8 0.8
07/04:00pm W 16 21 - - - - 8 Partly cloudy - 13.7 1006.8 0.8
07/03:45pm WSW 19 24 - - - - 5 Partly cloudy - 13.2 1007.0 0.2
07/03:30pm WSW 20 27 - - - - 10 Partly cloudy - 15.0 1006.8 0.0
07/03:03pm WSW 17 27 - - - - 10 Partly cloudy - 16.2 1006.6 0.0
07/03:00pm WSW 18 27 - - - - 10 Cloudy - 16.7 1006.6 0.0
07/02:30pm WSW 17 23 - - - - 10 Partly cloudy - 16.2 1006.6 0.0
07/02:00pm WSW 16 22 - - - - 10 Partly cloudy - 16.9 1006.9 0.0
07/01:30pm WSW 15 23 - - - - 10 Partly cloudy - 15.9 1007.1 0.0
07/01:00pm WSW 16 22 - - - - 10 Partly cloudy - 17.1 1007.0 0.0
07/12:30pm WSW 15 21 - - - - 10 Partly cloudy - 16.4 1006.9 0.0
07/12:00pm WSW 13 18 - - - - 10 Cloudy - 16.1 1007.0 0.0
07/11:30am SW 14 18 - - - - 10 Partly cloudy - 15.8 1006.8 0.0
07/11:00am SW 15 22 - - - - 10 Partly cloudy - 16.1 1006.7 0.0
07/10:30am WSW 12 16 - - - - 10 Partly cloudy - 14.8 1006.6 0.0
07/10:00am SW 14 18 - - - - 10 Partly cloudy - 14.0 1006.7 0.0
07/09:30am SW 15 19 - - - - 10 Partly cloudy - 13.6 1006.6 0.0
07/09:00am SW 13 17 - - - - 10 Cloudy - 13.7 1006.4 0.0
07/08:30am W 10 14 - - - - 10 Partly cloudy - 14.6 1005.9 0.0
07/08:00am W 6 8 - - - - 10 Partly cloudy - 13.3 1005.5 0.0
07/07:30am CALM 0 0 - - - - 8 - - 12.5 1005.3 0.0
07/07:00am CALM 0 0 - - - - 9 Partly cloudy - 9.9 1005.2 0.0
07/06:30am WSW 4 4 - - - - 10 Partly cloudy - 8.7 1005.1 0.0
07/06:00am WSW 1 4 - - - - 9 Mostly clear - 7.2 1004.9 0.0
07/05:30am WSW 4 5 - - - - 9 - - 7.3 1004.8 0.0
07/05:09am WSW 5 6 - - - - 10 - - 8.5 1004.6 0.0
07/05:00am WSW 5 6 - - - - 7 - - 8.8 1004.6 0.0
07/04:56am SW 5 6 - - - - 5 - - 8.6 1004.5 0.0
07/04:30am WSW 5 6 - - - - 9 - - 8.2 1004.5 0.0
07/04:00am W 3 4 - - - - 9 - - 8.9 1004.4 0.0
07/03:49am W 4 4 - - - - 9 - - 9.0 1004.5 0.0
07/03:38am WNW 1 4 - - - - 5 Partly cloudy - 9.5 1004.7 0.0
07/03:30am CALM 0 0 - - - - 10 Partly cloudy - 9.6 1004.6 0.0
07/03:00am CALM 0 0 - - - - 7 Cloudy - 10.6 1005.0 0.0
07/02:30am WNW 3 3 - - - - 10 Cloudy - 10.3 1005.2 0.0
07/02:00am CALM 0 0 - - - - 8 Cloudy - 10.2 1005.7 0.0
07/01:30am NW 3 5 - - - - 9 Cloudy - 10.0 1005.9 0.0
07/01:00am CALM 0 0 - - - - 10 Partly cloudy - 8.9 1006.3 0.0
07/12:30am CALM 0 0 - - - - 9 Partly cloudy - 8.9 1006.4 0.0
07/12:00am CALM 0 0 - - - - 9 Mostly clear - 9.9 1006.8 0.0
 
Date/Time
EDT
Wind Sea
Height
m
Swell Vis
km
Cloud Weather Temp
°C
Press
MSL
hPa
Rain since
9am
mm
Dir  Spd
kts
Gust
kts
Height
m
Period
s
Dir
06/11:30pm ENE 6 8 - - - - 9 - - 11.3 1006.8 0.0
06/11:00pm ESE 4 5 - - - - 8 - - 11.4 1007.4 0.0
06/10:30pm ESE 3 5 - - - - 8 - - 11.3 1007.9 0.0
06/10:00pm SE 5 5 - - - - 9 - - 12.2 1008.2 0.0
06/09:30pm SSE 5 6 - - - - 10 - - 12.3 1008.1 0.0
06/09:00pm SSE 5 6 - - - - 10 Cloudy - 12.3 1008.0 0.0
06/08:30pm SSE 7 8 - - - - 10 - - 12.7 1008.1 0.0
06/08:00pm SSE 9 11 - - - - 10 - - 13.4 1008.3 0.0
06/07:30pm SSE 9 13 - - - - 10 - - 15.0 1008.3 0.0
06/07:00pm SSE 10 13 - - - - 10 - - 15.3 1008.2 0.0
06/06:30pm S 11 13 - - - - 9 - - 14.9 1008.2 0.0
06/06:00pm SSE 11 15 - - - - 10 Mostly clear - 15.7 1008.2 0.0
06/05:30pm S 11 15 - - - - 10 - - 15.7 1008.6 0.0
06/05:00pm SSW 12 16 - - - - 10 Partly cloudy - 15.7 1008.9 0.0
06/04:30pm SSW 11 16 - - - - 10 - - 16.4 1009.3 0.0
06/04:00pm SSW 10 15 - - - - 10 Partly cloudy - 17.5 1009.6 0.0
06/03:30pm SSW 9 14 - - - - 10 Partly cloudy - 17.5 1009.9 0.0
06/03:00pm SSW 9 13 - - - - 10 Partly cloudy - 17.6 1010.2 0.0
06/02:30pm S 11 14 - - - - 10 Partly cloudy - 16.9 1010.3 0.0
06/02:00pm SSW 12 16 - - - - 10 Partly cloudy - 17.2 1010.6 0.0
06/01:30pm SSE 7 11 - - - - 10 Partly cloudy - 17.0 1010.8 0.0
06/01:00pm S 9 13 - - - - 10 Partly cloudy - 17.3 1011.1 0.0
06/12:30pm SSE 9 13 - - - - 10 Partly cloudy - 16.8 1011.4 0.0
06/12:00pm SSE 8 13 - - - - 10 Cloudy - 17.3 1011.8 0.0
06/11:30am SSE 10 13 - - - - 10 Partly cloudy - 17.0 1012.1 0.0
06/11:00am S 10 15 - - - - 10 Partly cloudy - 16.1 1012.5 0.0
06/10:30am S 10 13 - - - - 10 Partly cloudy - 15.2 1012.8 0.0
06/10:00am S 12 17 - - - - 10 Partly cloudy - 15.7 1012.9 0.0
06/09:30am SSE 11 13 - - - - 10 Partly cloudy - 14.4 1013.4 0.0
06/09:00am S 9 12 - - - - 10 Cloudy - 14.2 1013.9 0.2
06/08:30am S 10 14 - - - - 10 Partly cloudy - 13.7 1013.2 0.2
06/08:00am SSE 9 12 - - - - 10 Partly cloudy - 13.1 1013.2 0.2
06/07:30am S 7 9 - - - - 10 Partly cloudy - 12.5 1013.4 0.2
06/07:00am S 8 11 - - - - 10 Cloudy - 12.0 1013.5 0.2
06/06:30am S 9 11 - - - - 10 Cloudy - 11.6 1013.5 0.2
06/06:00am S 8 11 - - - - 10 Cloudy - 11.8 1013.6 0.2
06/05:30am SSE 11 16 - - - - 10 Cloudy - 12.0 1013.3 0.2
06/05:00am S 11 13 - - - - 10 Partly cloudy - 11.9 1013.3 0.2
06/04:30am S 9 13 - - - - 10 Partly cloudy - 11.9 1013.5 0.2
06/04:00am S 10 14 - - - - 10 Partly cloudy - 11.8 1014.0 0.2
06/03:30am S 8 10 - - - - 10 Partly cloudy - 11.8 1014.2 0.2
06/03:00am S 11 15 - - - - 10 Cloudy - 11.9 1014.6 0.2
06/02:30am S 10 12 - - - - 9 Partly cloudy - 11.8 1014.8 0.2
06/02:00am S 9 12 - - - - 10 Cloudy - 11.9 1015.1 0.2
06/01:30am S 8 13 - - - - 10 Cloudy - 11.9 1015.4 0.2
06/01:00am S 11 14 - - - - 10 Cloudy - 12.0 1015.6 0.2
06/12:30am SSE 11 16 - - - - 10 Partly cloudy - 12.1 1015.6 0.2
06/12:00am SSE 12 18 - - - - 10 Mostly cloudy - 12.2 1015.6 0.2
 
Date/Time
EDT
Wind Sea
Height
m
Swell Vis
km
Cloud Weather Temp
°C
Press
MSL
hPa
Rain since
9am
mm
Dir  Spd
kts
Gust
kts
Height
m
Period
s
Dir
05/11:30pm SSE 13 18 - - - - 10 Cloudy - 12.2 1015.9 0.2
05/11:00pm SSE 15 21 - - - - 10 Cloudy - 12.3 1016.1 0.2
05/10:30pm S 11 16 - - - - 10 Partly cloudy - 12.1 1016.2 0.2
05/10:00pm S 14 19 - - - - 10 Cloudy - 12.3 1016.3 0.2
05/09:30pm S 14 19 - - - - 10 Cloudy - 12.2 1016.3 0.2
05/09:00pm S 14 19 - - - - 10 Cloudy - 12.4 1016.4 0.2
05/08:30pm S 13 17 - - - - 10 Partly cloudy - 12.3 1016.5 0.2
05/08:00pm S 16 22 - - - - 10 Partly cloudy - 12.6 1016.3 0.2
05/07:30pm S 14 20 - - - - 10 Cloudy - 13.0 1016.2 0.2
05/07:00pm S 17 24 - - - - 10 Partly cloudy - 13.2 1015.9 0.2
05/06:30pm S 16 21 - - - - 10 Partly cloudy - 13.6 1015.7 0.2
05/06:00pm S 16 22 - - - - 10 Cloudy - 13.6 1015.6 0.2
05/05:30pm SSW 17 23 - - - - 10 Partly cloudy - 13.6 1015.6 0.2
05/05:00pm S 19 24 - - - - 10 Partly cloudy - 14.7 1015.6 0.2
05/04:30pm SSW 19 24 - - - - 10 Partly cloudy - 14.6 1015.6 0.2
05/04:00pm SSW 19 25 - - - - 10 Partly cloudy - 15.0 1015.6 0.2
05/03:30pm SSW 19 24 - - - - 10 Partly cloudy - 15.6 1015.6 0.2
05/03:00pm SSW 19 24 - - - - 10 Cloudy - 14.6 1015.7 0.2
05/02:30pm SSW 19 24 - - - - 10 Partly cloudy - 14.7 1015.6 0.2
05/02:00pm SSW 19 25 - - - - 10 Partly cloudy - 15.9 1015.6 0.2
05/01:30pm SSW 20 25 - - - - 10 Partly cloudy - 15.4 1015.5 0.2
05/01:00pm S 20 25 - - - - 10 Partly cloudy - 15.0 1015.5 0.2
05/12:30pm SSW 21 27 - - - - 10 Partly cloudy - 14.6 1015.3 0.2
05/12:00pm SSW 19 26 - - - - 10 Cloudy - 14.1 1015.2 0.2
05/11:30am SSW 19 25 - - - - 10 Partly cloudy - 13.8 1014.8 0.2
05/11:00am S 17 23 - - - - 9 Partly cloudy - 13.4 1014.5 0.2
05/10:30am S 21 28 - - - - 10 Partly cloudy - 13.5 1014.3 0.2
05/10:00am S 20 27 - - - - 10 Partly cloudy - 13.5 1014.1 0.2
05/09:54am S 20 27 - - - - 10 Partly cloudy - 13.5 1014.0 0.2
05/09:48am S 19 26 - - - - 8 Partly cloudy - 13.0 1014.0 0.2
05/09:35am S 18 25 - - - - 4 Partly cloudy - 12.3 1014.0 0.0
05/09:30am S 18 25 - - - - 5 Partly cloudy - 12.6 1014.0 0.0
05/09:29am S 19 25 - - - - 5 Partly cloudy - 12.5 1014.0 0.0
05/09:18am S 15 23 - - - - 7 Partly cloudy - 13.0 1013.9 0.0
05/09:17am S 15 23 - - - - 6 Partly cloudy - 12.9 1013.9 0.0
05/09:04am S 19 29 - - - - 5 Partly cloudy - 12.8 1013.7 0.0
05/09:02am S 21 29 - - - - 5 Partly cloudy - 12.7 1013.7 0.0
05/09:00am S 22 29 - - - - 6 Cloudy - 12.7 1013.9 0.0
05/08:30am S 19 25 - - - - 8 Partly cloudy - 13.3 1013.3 0.0
05/08:15am S 17 27 - - - - 8 Partly cloudy - 13.1 1013.3 0.0
05/08:00am S 19 27 - - - - 8 Partly cloudy - 13.4 1013.1 0.0
05/07:39am S 17 27 - - - - 7 Partly cloudy - 13.3 1012.7 0.0
05/07:30am S 20 27 - - - - 7 Partly cloudy - 13.2 1012.6 0.0
05/07:00am S 18 26 - - - - 9 Cloudy - 13.4 1012.3 0.0
05/06:30am S 19 25 - - - - 10 Partly cloudy - 13.5 1012.1 0.0
05/06:01am S 18 28 - - - - 8 Partly cloudy - 13.6 1011.7 0.0
05/06:00am S 19 28 - - - - 9 Cloudy - 13.7 1011.6 0.0
05/05:36am SSW 16 26 - - - - 7 Partly cloudy - 13.7 1011.3 0.0
05/05:30am SSW 16 24 - - - - 9 Partly cloudy - 13.6 1011.2 0.0
05/05:08am S 18 28 - - - - 9 Partly cloudy - 13.5 1010.9 0.0
05/05:00am SSW 19 26 - - - - 6 Partly cloudy - 13.5 1010.8 0.0
05/04:45am SSW 18 25 - - - - 5 Partly cloudy - 13.5 1010.7 0.0
05/04:30am SSW 19 25 - - - - 10 Partly cloudy - 14.1 1010.5 0.0
05/04:00am SSW 21 28 - - - - 9 Partly cloudy - 13.8 1010.0 0.0
05/03:41am SSW 17 24 - - - - 8 Cloudy - 13.8 1009.9 0.0
05/03:30am SSW 18 25 - - - - 8 Partly cloudy - 13.7 1009.9 0.0
05/03:24am SSW 17 25 - - - - 7 Partly cloudy - 13.5 1009.8 0.0
05/03:00am SSW 21 27 - - - - 4 Cloudy - 13.6 1009.7 0.0
05/02:53am SSW 19 26 - - - - 5 Cloudy - 14.0 1009.5 0.0
05/02:30am SSW 18 25 - - - - 8 Partly cloudy - 14.5 1009.2 0.0
05/02:00am SW 17 23 - - - - 7 Cloudy - 14.9 1009.0 0.0
05/01:46am SW 16 22 - - - - 7 Partly cloudy - 15.0 1009.0 0.0
05/01:30am SW 18 23 - - - - 5 Partly cloudy - 15.1 1008.8 0.0
05/01:27am SW 17 23 - - - - 5 Partly cloudy - 15.3 1008.8 0.0
05/01:00am SW 16 20 - - - - 8 Partly cloudy - 15.5 1008.8 0.0
05/12:30am WSW 15 22 - - - - 9 Cloudy - 15.5 1008.7 0.0
05/12:00am WSW 16 22 - - - - 7 Cloudy - 15.6 1008.7 0.0
 
Date/Time
EDT
Wind Sea
Height
m
Swell Vis
km
Cloud Weather Temp
°C
Press
MSL
hPa
Rain since
9am
mm
Dir  Spd
kts
Gust
kts
Height
m
Period
s
Dir
04/11:30pm WSW 13 19 - - - - 8 Cloudy - 15.7 1009.1 0.0
04/11:25pm WSW 13 19 - - - - 9 Cloudy - 15.7 1009.1 0.0
04/11:05pm WSW 15 23 - - - - 5 Cloudy - 15.8 1008.9 0.0
04/11:00pm WSW 14 19 - - - - 8 Cloudy - 15.8 1008.9 0.0
04/10:30pm W 15 22 - - - - 9 Cloudy - 15.8 1008.5 0.0
04/10:00pm WSW 14 21 - - - - 8 Cloudy - 15.8 1008.2 0.0
04/09:30pm WSW 15 21 - - - - 8 Cloudy - 16.0 1008.2 0.0
04/09:00pm WSW 14 21 - - - - 8 Cloudy - 16.3 1007.7 0.0
04/08:47pm WSW 14 21 - - - - 8 Partly cloudy - 16.5 1007.6 0.0
04/08:30pm SW 13 18 - - - - 9 Partly cloudy - 17.2 1007.3 0.0

Other formats

Comma delimited format used in spreadsheet applications
http://www.bom.gov.au/fwo/IDV60701/IDV60701.94837.axf

JavaScript Object Notation format (JSON) in row-major order
http://www.bom.gov.au/fwo/IDV60701/IDV60701.94837.json

Data quality

Most of these data are generated automatically and are frequently updated. Quality checks on data are not normally performed. It is possible for incorrect values to appear. Refer to information at About Latest Weather Observations and please check the disclaimer before using these data.